sensor_id;sensor_type;location;lat;lon;timestamp;temperature;humidity
29453;DHT22;16424;50.956;5.320;2023-04-01T00:01:26;10.40;99.90
29453;DHT22;16424;50.956;5.320;2023-04-01T00:03:52;10.50;99.90
29453;DHT22;16424;50.956;5.320;2023-04-01T00:06:19;10.50;99.90
29453;DHT22;16424;50.956;5.320;2023-04-01T00:08:45;10.40;99.90
29453;DHT22;16424;50.956;5.320;2023-04-01T00:11:11;10.40;99.90
29453;DHT22;16424;50.956;5.320;2023-04-01T00:13:37;10.40;99.90
29453;DHT22;16424;50.956;5.320;2023-04-01T00:16:04;10.40;99.90
29453;DHT22;16424;50.956;5.320;2023-04-01T00:18:30;10.40;99.90
29453;DHT22;16424;50.956;5.320;2023-04-01T00:20:56;10.40;99.90
29453;DHT22;16424;50.956;5.320;2023-04-01T00:23:22;10.40;99.90
29453;DHT22;16424;50.956;5.320;2023-04-01T00:25:48;10.40;99.90
29453;DHT22;16424;50.956;5.320;2023-04-01T00:28:18;10.40;99.90
29453;DHT22;16424;50.956;5.320;2023-04-01T00:30:44;10.40;99.90
29453;DHT22;16424;50.956;5.320;2023-04-01T00:33:10;10.40;99.90
29453;DHT22;16424;50.956;5.320;2023-04-01T00:35:36;10.50;99.90
29453;DHT22;16424;50.956;5.320;2023-04-01T00:38:02;10.50;99.90
29453;DHT22;16424;50.956;5.320;2023-04-01T00:40:30;10.50;99.90
29453;DHT22;16424;50.956;5.320;2023-04-01T00:42:55;10.40;99.90
29453;DHT22;16424;50.956;5.320;2023-04-01T00:45:34;10.40;99.90
29453;DHT22;16424;50.956;5.320;2023-04-01T00:48:06;10.40;99.90
29453;DHT22;16424;50.956;5.320;2023-04-01T00:50:33;10.40;99.90
29453;DHT22;16424;50.956;5.320;2023-04-01T00:53:01;10.30;99.90
29453;DHT22;16424;50.956;5.320;2023-04-01T00:55:30;10.40;99.90
29453;DHT22;16424;50.956;5.320;2023-04-01T00:57:58;10.50;99.90
29453;DHT22;16424;50.956;5.320;2023-04-01T01:00:25;10.40;99.90
29453;DHT22;16424;50.956;5.320;2023-04-01T01:02:51;10.50;99.90
29453;DHT22;16424;50.956;5.320;2023-04-01T01:05:21;10.50;99.90
29453;DHT22;16424;50.956;5.320;2023-04-01T01:08:21;10.50;99.90
29453;DHT22;16424;50.956;5.320;2023-04-01T01:10:51;10.50;99.90
29453;DHT22;16424;50.956;5.320;2023-04-01T01:13:27;10.40;99.90
29453;DHT22;16424;50.956;5.320;2023-04-01T01:16:04;10.50;99.90
29453;DHT22;16424;50.956;5.320;2023-04-01T01:18:58;10.50;99.90
29453;DHT22;16424;50.956;5.320;2023-04-01T01:27:10;10.40;99.90
29453;DHT22;16424;50.956;5.320;2023-04-01T01:29:50;10.40;99.90
29453;DHT22;16424;50.956;5.320;2023-04-01T01:37:52;10.30;99.90
29453;DHT22;16424;50.956;5.320;2023-04-01T01:40:19;10.20;99.90
29453;DHT22;16424;50.956;5.320;2023-04-01T01:42:54;10.10;99.90
29453;DHT22;16424;50.956;5.320;2023-04-01T01:45:23;10.10;99.90
29453;DHT22;16424;50.956;5.320;2023-04-01T01:47:50;10.20;99.90
29453;DHT22;16424;50.956;5.320;2023-04-01T01:50:18;10.20;99.90
29453;DHT22;16424;50.956;5.320;2023-04-01T01:52:44;10.20;99.90
29453;DHT22;16424;50.956;5.320;2023-04-01T01:57:59;10.10;99.90
29453;DHT22;16424;50.956;5.320;2023-04-01T02:00:27;10.10;99.90
29453;DHT22;16424;50.956;5.320;2023-04-01T02:02:53;10.20;99.90
29453;DHT22;16424;50.956;5.320;2023-04-01T02:05:24;10.20;99.90
29453;DHT22;16424;50.956;5.320;2023-04-01T02:08:09;10.20;99.90
29453;DHT22;16424;50.956;5.320;2023-04-01T02:10:39;10.20;99.90
29453;DHT22;16424;50.956;5.320;2023-04-01T02:13:13;10.20;99.90
29453;DHT22;16424;50.956;5.320;2023-04-01T02:15:45;10.20;99.90
29453;DHT22;16424;50.956;5.320;2023-04-01T02:18:13;10.20;99.90
29453;DHT22;16424;50.956;5.320;2023-04-01T02:20:39;10.20;99.90
29453;DHT22;16424;50.956;5.320;2023-04-01T02:23:07;10.20;99.90
29453;DHT22;16424;50.956;5.320;2023-04-01T02:25:35;10.20;99.90
29453;DHT22;16424;50.956;5.320;2023-04-01T02:28:02;10.40;99.90
29453;DHT22;16424;50.956;5.320;2023-04-01T02:30:32;10.30;99.90
29453;DHT22;16424;50.956;5.320;2023-04-01T02:32:59;10.30;99.90
29453;DHT22;16424;50.956;5.320;2023-04-01T02:35:26;10.40;99.90
29453;DHT22;16424;50.956;5.320;2023-04-01T02:37:53;10.50;99.90
29453;DHT22;16424;50.956;5.320;2023-04-01T02:40:19;10.50;99.90
29453;DHT22;16424;50.956;5.320;2023-04-01T02:42:45;10.50;99.90
29453;DHT22;16424;50.956;5.320;2023-04-01T02:45:12;10.50;99.90
29453;DHT22;16424;50.956;5.320;2023-04-01T02:47:38;10.50;99.90
29453;DHT22;16424;50.956;5.320;2023-04-01T02:50:04;10.50;99.90
29453;DHT22;16424;50.956;5.320;2023-04-01T02:52:31;10.50;99.90
29453;DHT22;16424;50.956;5.320;2023-04-01T02:54:57;10.50;99.90
29453;DHT22;16424;50.956;5.320;2023-04-01T02:57:24;10.40;99.90
29453;DHT22;16424;50.956;5.320;2023-04-01T02:59:50;10.40;99.90
29453;DHT22;16424;50.956;5.320;2023-04-01T03:02:16;10.50;99.90
29453;DHT22;16424;50.956;5.320;2023-04-01T03:04:43;10.50;99.90
29453;DHT22;16424;50.956;5.320;2023-04-01T03:07:09;10.40;99.90
29453;DHT22;16424;50.956;5.320;2023-04-01T03:09:38;10.40;99.90
29453;DHT22;16424;50.956;5.320;2023-04-01T03:12:05;10.30;99.90
29453;DHT22;16424;50.956;5.320;2023-04-01T03:14:31;10.20;99.90
29453;DHT22;16424;50.956;5.320;2023-04-01T03:16:57;10.10;99.90
29453;DHT22;16424;50.956;5.320;2023-04-01T03:19:22;10.20;99.90
29453;DHT22;16424;50.956;5.320;2023-04-01T03:21:48;10.20;99.90
29453;DHT22;16424;50.956;5.320;2023-04-01T03:24:13;10.20;99.90
29453;DHT22;16424;50.956;5.320;2023-04-01T03:26:39;10.10;99.90
29453;DHT22;16424;50.956;5.320;2023-04-01T03:29:05;10.20;99.90
29453;DHT22;16424;50.956;5.320;2023-04-01T03:31:31;10.20;99.90
29453;DHT22;16424;50.956;5.320;2023-04-01T03:33:56;10.00;99.90
29453;DHT22;16424;50.956;5.320;2023-04-01T03:36:22;10.00;99.90
29453;DHT22;16424;50.956;5.320;2023-04-01T03:38:48;9.90;99.90
29453;DHT22;16424;50.956;5.320;2023-04-01T03:41:15;9.90;99.90
29453;DHT22;16424;50.956;5.320;2023-04-01T03:43:41;9.90;99.90
29453;DHT22;16424;50.956;5.320;2023-04-01T03:46:07;10.00;99.90
29453;DHT22;16424;50.956;5.320;2023-04-01T03:48:33;9.90;99.90
29453;DHT22;16424;50.956;5.320;2023-04-01T03:50:58;9.90;99.90
29453;DHT22;16424;50.956;5.320;2023-04-01T03:53:24;10.00;99.90
29453;DHT22;16424;50.956;5.320;2023-04-01T03:55:50;10.00;99.90
29453;DHT22;16424;50.956;5.320;2023-04-01T03:58:17;10.10;99.90
29453;DHT22;16424;50.956;5.320;2023-04-01T04:00:43;10.00;99.90
29453;DHT22;16424;50.956;5.320;2023-04-01T04:03:09;10.00;99.90
29453;DHT22;16424;50.956;5.320;2023-04-01T04:05:34;9.90;99.90
29453;DHT22;16424;50.956;5.320;2023-04-01T04:08:00;9.90;99.90
29453;DHT22;16424;50.956;5.320;2023-04-01T04:10:26;9.90;99.90
29453;DHT22;16424;50.956;5.320;2023-04-01T04:12:52;10.00;99.90
29453;DHT22;16424;50.956;5.320;2023-04-01T04:15:18;10.00;99.90
29453;DHT22;16424;50.956;5.320;2023-04-01T04:17:45;10.00;99.90
29453;DHT22;16424;50.956;5.320;2023-04-01T04:20:11;10.00;99.90
29453;DHT22;16424;50.956;5.320;2023-04-01T04:22:36;10.00;99.90
29453;DHT22;16424;50.956;5.320;2023-04-01T04:25:02;10.00;99.90
29453;DHT22;16424;50.956;5.320;2023-04-01T04:27:28;9.90;99.90
29453;DHT22;16424;50.956;5.320;2023-04-01T04:29:53;9.90;99.90
29453;DHT22;16424;50.956;5.320;2023-04-01T04:32:19;9.80;99.90
29453;DHT22;16424;50.956;5.320;2023-04-01T04:34:45;9.90;99.90
29453;DHT22;16424;50.956;5.320;2023-04-01T04:37:11;9.90;99.90
29453;DHT22;16424;50.956;5.320;2023-04-01T04:39:36;9.90;99.90
29453;DHT22;16424;50.956;5.320;2023-04-01T04:42:02;9.70;99.90
29453;DHT22;16424;50.956;5.320;2023-04-01T04:44:28;9.70;99.90
29453;DHT22;16424;50.956;5.320;2023-04-01T04:46:53;9.80;99.90
29453;DHT22;16424;50.956;5.320;2023-04-01T04:49:19;9.60;99.90
29453;DHT22;16424;50.956;5.320;2023-04-01T04:51:45;9.70;99.90
29453;DHT22;16424;50.956;5.320;2023-04-01T04:54:11;9.70;99.90
29453;DHT22;16424;50.956;5.320;2023-04-01T04:56:36;9.70;99.90
29453;DHT22;16424;50.956;5.320;2023-04-01T04:59:02;9.90;99.90
29453;DHT22;16424;50.956;5.320;2023-04-01T05:01:28;9.90;99.90
29453;DHT22;16424;50.956;5.320;2023-04-01T05:03:53;9.90;99.90
29453;DHT22;16424;50.956;5.320;2023-04-01T05:06:20;9.90;99.90
29453;DHT22;16424;50.956;5.320;2023-04-01T05:08:46;9.90;99.90
29453;DHT22;16424;50.956;5.320;2023-04-01T05:11:14;9.80;99.90
29453;DHT22;16424;50.956;5.320;2023-04-01T05:13:42;9.80;99.90
29453;DHT22;16424;50.956;5.320;2023-04-01T05:16:16;9.70;99.90
29453;DHT22;16424;50.956;5.320;2023-04-01T05:18:42;9.70;99.90
29453;DHT22;16424;50.956;5.320;2023-04-01T05:21:10;9.90;99.90
29453;DHT22;16424;50.956;5.320;2023-04-01T05:23:36;9.90;99.90
29453;DHT22;16424;50.956;5.320;2023-04-01T05:26:10;9.80;99.90
29453;DHT22;16424;50.956;5.320;2023-04-01T05:28:36;9.70;99.90
29453;DHT22;16424;50.956;5.320;2023-04-01T05:31:04;9.70;99.90
29453;DHT22;16424;50.956;5.320;2023-04-01T05:33:31;9.70;99.90
29453;DHT22;16424;50.956;5.320;2023-04-01T05:36:04;9.70;99.90
29453;DHT22;16424;50.956;5.320;2023-04-01T05:38:30;9.70;99.90
29453;DHT22;16424;50.956;5.320;2023-04-01T05:41:01;9.80;99.90
29453;DHT22;16424;50.956;5.320;2023-04-01T05:43:27;9.80;99.90
29453;DHT22;16424;50.956;5.320;2023-04-01T05:45:54;9.80;99.90
29453;DHT22;16424;50.956;5.320;2023-04-01T05:48:20;9.80;99.90
29453;DHT22;16424;50.956;5.320;2023-04-01T05:50:46;9.90;99.90
29453;DHT22;16424;50.956;5.320;2023-04-01T05:53:11;9.90;99.90
29453;DHT22;16424;50.956;5.320;2023-04-01T05:55:37;9.80;99.90
29453;DHT22;16424;50.956;5.320;2023-04-01T05:58:03;9.80;99.90
29453;DHT22;16424;50.956;5.320;2023-04-01T06:00:28;9.80;99.90
29453;DHT22;16424;50.956;5.320;2023-04-01T06:02:54;9.80;99.90
29453;DHT22;16424;50.956;5.320;2023-04-01T06:05:21;9.80;99.90
29453;DHT22;16424;50.956;5.320;2023-04-01T06:07:48;9.80;99.90
29453;DHT22;16424;50.956;5.320;2023-04-01T06:10:19;9.80;99.90
29453;DHT22;16424;50.956;5.320;2023-04-01T06:12:49;9.80;99.90
29453;DHT22;16424;50.956;5.320;2023-04-01T06:15:23;9.80;99.90
29453;DHT22;16424;50.956;5.320;2023-04-01T06:44:56;9.80;99.90
29453;DHT22;16424;50.956;5.320;2023-04-01T06:58:13;9.80;99.90
29453;DHT22;16424;50.956;5.320;2023-04-01T07:00:44;9.80;99.90
29453;DHT22;16424;50.956;5.320;2023-04-01T07:03:26;9.80;99.90
29453;DHT22;16424;50.956;5.320;2023-04-01T07:06:05;9.80;99.90
29453;DHT22;16424;50.956;5.320;2023-04-01T07:08:36;9.80;99.90
29453;DHT22;16424;50.956;5.320;2023-04-01T07:11:08;9.80;99.90
29453;DHT22;16424;50.956;5.320;2023-04-01T07:13:51;9.80;99.90
29453;DHT22;16424;50.956;5.320;2023-04-01T07:16:30;9.80;99.90
29453;DHT22;16424;50.956;5.320;2023-04-01T07:19:12;10.00;99.90
29453;DHT22;16424;50.956;5.320;2023-04-01T07:24:16;10.10;99.90
29453;DHT22;16424;50.956;5.320;2023-04-01T07:26:43;10.00;99.90
29453;DHT22;16424;50.956;5.320;2023-04-01T07:29:11;10.00;99.90
29453;DHT22;16424;50.956;5.320;2023-04-01T07:31:52;10.00;99.90
29453;DHT22;16424;50.956;5.320;2023-04-01T07:40:13;9.90;99.90
29453;DHT22;16424;50.956;5.320;2023-04-01T07:45:18;10.00;99.90
29453;DHT22;16424;50.956;5.320;2023-04-01T07:50:46;10.00;99.90
29453;DHT22;16424;50.956;5.320;2023-04-01T08:06:48;10.00;99.90
29453;DHT22;16424;50.956;5.320;2023-04-01T08:09:26;10.00;99.90
29453;DHT22;16424;50.956;5.320;2023-04-01T08:12:07;10.00;99.90
29453;DHT22;16424;50.956;5.320;2023-04-01T08:17:31;9.90;99.90
29453;DHT22;16424;50.956;5.320;2023-04-01T08:22:53;9.90;99.90
29453;DHT22;16424;50.956;5.320;2023-04-01T08:25:28;9.90;99.90
29453;DHT22;16424;50.956;5.320;2023-04-01T08:28:00;10.00;99.90
29453;DHT22;16424;50.956;5.320;2023-04-01T08:30:34;10.00;99.90
29453;DHT22;16424;50.956;5.320;2023-04-01T08:36:08;10.10;99.90
29453;DHT22;16424;50.956;5.320;2023-04-01T08:38:49;10.20;99.90
29453;DHT22;16424;50.956;5.320;2023-04-01T08:47:15;10.30;99.90
29453;DHT22;16424;50.956;5.320;2023-04-01T08:58:31;10.30;99.90
29453;DHT22;16424;50.956;5.320;2023-04-01T09:01:33;10.50;99.90
29453;DHT22;16424;50.956;5.320;2023-04-01T09:04:26;10.50;99.90
29453;DHT22;16424;50.956;5.320;2023-04-01T09:15:50;10.50;99.90
29453;DHT22;16424;50.956;5.320;2023-04-01T09:21:34;10.60;99.90
29453;DHT22;16424;50.956;5.320;2023-04-01T09:24:26;10.40;99.90
29453;DHT22;16424;50.956;5.320;2023-04-01T09:35:21;10.60;99.90
29453;DHT22;16424;50.956;5.320;2023-04-01T09:38:11;10.80;99.90
29453;DHT22;16424;50.956;5.320;2023-04-01T09:41:15;11.10;99.90
29453;DHT22;16424;50.956;5.320;2023-04-01T09:46:44;10.90;99.90
29453;DHT22;16424;50.956;5.320;2023-04-01T09:49:46;10.90;99.90
29453;DHT22;16424;50.956;5.320;2023-04-01T09:52:43;10.80;99.90
29453;DHT22;16424;50.956;5.320;2023-04-01T10:14:44;11.10;99.90
29453;DHT22;16424;50.956;5.320;2023-04-01T11:07:22;11.00;99.90
29453;DHT22;16424;50.956;5.320;2023-04-01T11:10:44;11.10;99.90
29453;DHT22;16424;50.956;5.320;2023-04-01T11:22:14;10.90;99.90
29453;DHT22;16424;50.956;5.320;2023-04-01T11:27:43;11.20;99.90
29453;DHT22;16424;50.956;5.320;2023-04-01T11:35:59;11.30;99.90
29453;DHT22;16424;50.956;5.320;2023-04-01T11:44:07;11.10;99.90
29453;DHT22;16424;50.956;5.320;2023-04-01T11:55:25;11.40;99.90
29453;DHT22;16424;50.956;5.320;2023-04-01T12:06:40;11.40;99.90
29453;DHT22;16424;50.956;5.320;2023-04-01T12:09:25;11.30;99.90
29453;DHT22;16424;50.956;5.320;2023-04-01T12:17:43;11.40;99.90
29453;DHT22;16424;50.956;5.320;2023-04-01T12:39:59;11.10;99.90
29453;DHT22;16424;50.956;5.320;2023-04-01T12:45:34;11.10;99.90
29453;DHT22;16424;50.956;5.320;2023-04-01T12:51:35;10.80;99.90
29453;DHT22;16424;50.956;5.320;2023-04-01T13:13:07;11.40;99.90
29453;DHT22;16424;50.956;5.320;2023-04-01T13:15:54;11.60;99.90
29453;DHT22;16424;50.956;5.320;2023-04-01T13:21:27;12.00;99.90
29453;DHT22;16424;50.956;5.320;2023-04-01T13:26:44;12.10;99.90
29453;DHT22;16424;50.956;5.320;2023-04-01T13:29:36;12.30;99.90
29453;DHT22;16424;50.956;5.320;2023-04-01T13:32:26;12.10;99.90
29453;DHT22;16424;50.956;5.320;2023-04-01T13:43:23;11.50;99.90
29453;DHT22;16424;50.956;5.320;2023-04-01T14:05:50;11.20;99.90
29453;DHT22;16424;50.956;5.320;2023-04-01T14:14:08;11.40;99.90
29453;DHT22;16424;50.956;5.320;2023-04-01T14:20:20;11.30;99.90
29453;DHT22;16424;50.956;5.320;2023-04-01T14:31:21;11.20;99.90
29453;DHT22;16424;50.956;5.320;2023-04-01T14:40:05;11.40;99.90
29453;DHT22;16424;50.956;5.320;2023-04-01T14:42:58;11.50;99.90
29453;DHT22;16424;50.956;5.320;2023-04-01T14:48:03;11.20;99.90
29453;DHT22;16424;50.956;5.320;2023-04-01T14:50:46;11.30;99.90
29453;DHT22;16424;50.956;5.320;2023-04-01T14:53:31;11.30;99.90
29453;DHT22;16424;50.956;5.320;2023-04-01T14:56:00;11.40;99.90
29453;DHT22;16424;50.956;5.320;2023-04-01T14:58:47;11.30;99.90
29453;DHT22;16424;50.956;5.320;2023-04-01T15:17:43;11.10;99.90
29453;DHT22;16424;50.956;5.320;2023-04-01T15:20:17;11.20;99.90
29453;DHT22;16424;50.956;5.320;2023-04-01T15:33:52;11.30;99.90
29453;DHT22;16424;50.956;5.320;2023-04-01T15:50:21;11.90;99.90
29453;DHT22;16424;50.956;5.320;2023-04-01T15:55:39;11.80;99.90
29453;DHT22;16424;50.956;5.320;2023-04-01T16:01:24;11.90;99.90
29453;DHT22;16424;50.956;5.320;2023-04-01T16:09:39;11.90;99.90
29453;DHT22;16424;50.956;5.320;2023-04-01T16:21:06;11.40;99.90
29453;DHT22;16424;50.956;5.320;2023-04-01T16:23:40;11.30;99.90
29453;DHT22;16424;50.956;5.320;2023-04-01T16:26:36;11.30;99.90
29453;DHT22;16424;50.956;5.320;2023-04-01T16:31:55;11.00;99.90
29453;DHT22;16424;50.956;5.320;2023-04-01T16:34:40;10.80;99.90
29453;DHT22;16424;50.956;5.320;2023-04-01T16:39:58;10.80;99.90
29453;DHT22;16424;50.956;5.320;2023-04-01T16:42:51;10.90;99.90
29453;DHT22;16424;50.956;5.320;2023-04-01T16:45:54;11.00;99.90
29453;DHT22;16424;50.956;5.320;2023-04-01T16:49:13;11.00;99.90
29453;DHT22;16424;50.956;5.320;2023-04-01T16:51:18;10.90;99.90
29453;DHT22;16424;50.956;5.320;2023-04-01T16:57:02;10.80;99.90
29453;DHT22;16424;50.956;5.320;2023-04-01T16:59:35;10.70;99.90
29453;DHT22;16424;50.956;5.320;2023-04-01T17:13:43;10.60;99.90
29453;DHT22;16424;50.956;5.320;2023-04-01T17:16:18;10.60;99.90
29453;DHT22;16424;50.956;5.320;2023-04-01T17:21:18;10.60;99.90
29453;DHT22;16424;50.956;5.320;2023-04-01T17:23:50;10.50;99.90
29453;DHT22;16424;50.956;5.320;2023-04-01T17:26:27;10.40;99.90
29453;DHT22;16424;50.956;5.320;2023-04-01T17:29:17;10.40;99.90
29453;DHT22;16424;50.956;5.320;2023-04-01T17:34:35;10.20;99.90
29453;DHT22;16424;50.956;5.320;2023-04-01T17:45:56;10.00;99.90
29453;DHT22;16424;50.956;5.320;2023-04-01T17:48:45;10.00;99.90
29453;DHT22;16424;50.956;5.320;2023-04-01T17:51:26;10.10;99.90
29453;DHT22;16424;50.956;5.320;2023-04-01T17:54:20;10.30;99.90
29453;DHT22;16424;50.956;5.320;2023-04-01T18:00:02;10.10;99.90
29453;DHT22;16424;50.956;5.320;2023-04-01T18:13:36;10.20;99.90
29453;DHT22;16424;50.956;5.320;2023-04-01T18:19:09;10.20;99.90
29453;DHT22;16424;50.956;5.320;2023-04-01T18:21:48;10.20;99.90
29453;DHT22;16424;50.956;5.320;2023-04-01T18:27:01;10.20;99.90
29453;DHT22;16424;50.956;5.320;2023-04-01T18:38:24;10.10;99.90
29453;DHT22;16424;50.956;5.320;2023-04-01T18:46:30;10.10;99.90
29453;DHT22;16424;50.956;5.320;2023-04-01T18:49:14;10.10;99.90
29453;DHT22;16424;50.956;5.320;2023-04-01T18:51:46;10.10;99.90
29453;DHT22;16424;50.956;5.320;2023-04-01T18:56:45;10.10;99.90
29453;DHT22;16424;50.956;5.320;2023-04-01T18:59:25;10.20;99.90
29453;DHT22;16424;50.956;5.320;2023-04-01T19:10:31;10.20;99.90
29453;DHT22;16424;50.956;5.320;2023-04-01T19:19:04;10.30;99.90
29453;DHT22;16424;50.956;5.320;2023-04-01T19:32:55;10.30;99.90
29453;DHT22;16424;50.956;5.320;2023-04-01T19:35:41;10.30;99.90
29453;DHT22;16424;50.956;5.320;2023-04-01T19:38:14;10.40;99.90
29453;DHT22;16424;50.956;5.320;2023-04-01T19:43:32;10.30;99.90
29453;DHT22;16424;50.956;5.320;2023-04-01T19:46:51;10.30;99.90
29453;DHT22;16424;50.956;5.320;2023-04-01T19:51:47;10.30;99.90
29453;DHT22;16424;50.956;5.320;2023-04-01T19:54:20;10.20;99.90
29453;DHT22;16424;50.956;5.320;2023-04-01T19:59:28;10.30;99.90
29453;DHT22;16424;50.956;5.320;2023-04-01T20:08:11;10.50;99.90
29453;DHT22;16424;50.956;5.320;2023-04-01T20:10:25;10.50;99.90
29453;DHT22;16424;50.956;5.320;2023-04-01T20:15:44;10.40;99.90
29453;DHT22;16424;50.956;5.320;2023-04-01T20:18:21;10.40;99.90
29453;DHT22;16424;50.956;5.320;2023-04-01T20:21:00;10.20;99.90
29453;DHT22;16424;50.956;5.320;2023-04-01T20:26:06;10.30;99.90
29453;DHT22;16424;50.956;5.320;2023-04-01T20:28:37;10.20;99.90
29453;DHT22;16424;50.956;5.320;2023-04-01T20:37:20;10.40;99.90
29453;DHT22;16424;50.956;5.320;2023-04-01T20:51:15;10.20;99.90
29453;DHT22;16424;50.956;5.320;2023-04-01T21:04:30;10.50;99.90
29453;DHT22;16424;50.956;5.320;2023-04-01T21:07:22;10.60;99.90
29453;DHT22;16424;50.956;5.320;2023-04-01T21:22:36;10.70;99.90
29453;DHT22;16424;50.956;5.320;2023-04-01T21:25:26;10.50;99.90
29453;DHT22;16424;50.956;5.320;2023-04-01T21:28:29;10.40;99.90
29453;DHT22;16424;50.956;5.320;2023-04-01T21:37:15;10.20;99.90
29453;DHT22;16424;50.956;5.320;2023-04-01T21:54:03;10.20;99.90
29453;DHT22;16424;50.956;5.320;2023-04-01T22:05:22;10.00;99.90
29453;DHT22;16424;50.956;5.320;2023-04-01T22:08:06;10.10;99.90
29453;DHT22;16424;50.956;5.320;2023-04-01T22:13:39;9.90;99.90
29453;DHT22;16424;50.956;5.320;2023-04-01T22:19:15;9.90;99.90
29453;DHT22;16424;50.956;5.320;2023-04-01T22:24:57;9.90;99.90
29453;DHT22;16424;50.956;5.320;2023-04-01T22:30:33;10.10;99.90
29453;DHT22;16424;50.956;5.320;2023-04-01T22:43:59;9.60;99.90
29453;DHT22;16424;50.956;5.320;2023-04-01T22:46:52;9.50;99.90
29453;DHT22;16424;50.956;5.320;2023-04-01T22:52:05;9.40;99.90
29453;DHT22;16424;50.956;5.320;2023-04-01T22:54:50;9.40;99.90
29453;DHT22;16424;50.956;5.320;2023-04-01T23:02:38;9.40;99.90
29453;DHT22;16424;50.956;5.320;2023-04-01T23:05:10;9.40;99.90
29453;DHT22;16424;50.956;5.320;2023-04-01T23:10:39;9.40;99.90
29453;DHT22;16424;50.956;5.320;2023-04-01T23:13:13;9.30;99.90
29453;DHT22;16424;50.956;5.320;2023-04-01T23:15:41;9.20;99.90
29453;DHT22;16424;50.956;5.320;2023-04-01T23:18:28;9.20;99.90
29453;DHT22;16424;50.956;5.320;2023-04-01T23:23:51;9.20;99.90
29453;DHT22;16424;50.956;5.320;2023-04-01T23:26:41;9.20;99.90
29453;DHT22;16424;50.956;5.320;2023-04-01T23:29:17;9.30;99.90
29453;DHT22;16424;50.956;5.320;2023-04-01T23:32:03;9.30;99.90
29453;DHT22;16424;50.956;5.320;2023-04-01T23:34:31;9.40;99.90
29453;DHT22;16424;50.956;5.320;2023-04-01T23:39:41;9.20;99.90
29453;DHT22;16424;50.956;5.320;2023-04-01T23:44:41;9.10;99.90
29453;DHT22;16424;50.956;5.320;2023-04-01T23:47:14;9.10;99.90
29453;DHT22;16424;50.956;5.320;2023-04-01T23:49:47;9.10;99.90
29453;DHT22;16424;50.956;5.320;2023-04-01T23:52:44;9.10;99.90
29453;DHT22;16424;50.956;5.320;2023-04-01T23:55:18;9.00;99.90
29453;DHT22;16424;50.956;5.320;2023-04-01T23:58:13;8.90;99.90
